Time;durP1;ratioP1;P1;durP2;ratioP2;P2;SDS_P1;SDS_P2;PMS_P1;PMS_P2;Temp;Humidity;BMP_temperature;BMP_pressure;BME280_temperature;BME280_humidity;BME280_pressure;Samples;Min_cycle;Max_cycle;Signal;HPM_P1;HPM_P2
2023/05/07 00:01:47;;;;;;;0.20;0.20;;;12.60;99.90;;;;;;4993894;28;20041;-81
2023/05/07 00:04:13;;;;;;;0.10;0.10;;;12.60;99.90;;;;;;4993982;28;20042;-81
2023/05/07 00:06:39;;;;;;;0.13;0.13;;;12.60;99.90;;;;;;5012674;28;20111;-81
2023/05/07 00:09:06;;;;;;;0.20;0.20;;;12.60;99.90;;;;;;4994706;28;20062;-81
2023/05/07 00:11:32;;;;;;;0.20;0.20;;;12.50;99.90;;;;;;4994861;28;20065;-81
2023/05/07 00:13:58;;;;;;;0.20;0.20;;;12.50;99.90;;;;;;4995708;28;20069;-82
2023/05/07 00:16:24;;;;;;;0.20;0.20;;;12.50;99.90;;;;;;5006198;28;20129;-81
2023/05/07 00:18:50;;;;;;;0.20;0.20;;;12.50;99.90;;;;;;5011782;28;20417;-81
2023/05/07 00:21:16;;;;;;;0.20;0.20;;;12.50;99.90;;;;;;4992919;28;20045;-81
2023/05/07 00:23:41;;;;;;;0.40;0.30;;;12.40;99.90;;;;;;4992913;28;20045;-81
2023/05/07 00:26:07;;;;;;;0.10;0.10;;;12.40;99.90;;;;;;5012234;28;20038;-81
2023/05/07 00:28:33;;;;;;;0.20;0.20;;;12.40;99.90;;;;;;4991771;28;20037;-81
2023/05/07 00:30:59;;;;;;;0.20;0.20;;;12.30;99.90;;;;;;4990207;28;20482;-80
2023/05/07 00:33:26;;;;;;;0.10;0.10;;;12.30;99.90;;;;;;4988799;28;20064;-81
2023/05/07 00:35:53;;;;;;;0.10;0.10;;;12.30;99.90;;;;;;5006041;28;20034;-81
2023/05/07 00:38:19;;;;;;;0.20;0.20;;;12.30;99.90;;;;;;5012115;28;20046;-81
2023/05/07 00:40:45;;;;;;;0.20;0.20;;;12.30;99.90;;;;;;4993986;28;20038;-81
2023/05/07 00:43:12;;;;;;;0.20;0.20;;;12.30;99.90;;;;;;5011900;28;20042;-81
2023/05/07 00:45:38;;;;;;;0.20;0.20;;;12.20;99.90;;;;;;4993180;28;20049;-81
2023/05/07 00:48:04;;;;;;;0.20;0.20;;;12.20;99.90;;;;;;4994456;28;20056;-81
2023/05/07 00:50:31;;;;;;;0.20;0.20;;;12.20;99.90;;;;;;5001524;28;20111;-80
2023/05/07 00:52:57;;;;;;;0.10;0.10;;;12.20;99.90;;;;;;5021680;28;20324;-81
2023/05/07 00:55:23;;;;;;;0.20;0.20;;;12.20;99.90;;;;;;5011274;28;20541;-80
2023/05/07 00:57:50;;;;;;;0.20;0.20;;;12.20;99.90;;;;;;4991945;28;20141;-80
2023/05/07 01:00:17;;;;;;;0.20;0.20;;;12.30;99.90;;;;;;4992479;28;20042;-80
2023/05/07 01:02:44;;;;;;;0.20;0.20;;;12.20;99.90;;;;;;4992541;28;20046;-80
2023/05/07 01:05:13;;;;;;;0.10;0.10;;;12.20;99.90;;;;;;4994282;28;20053;-80
2023/05/07 01:07:41;;;;;;;0.20;0.20;;;12.20;99.90;;;;;;5012104;28;20049;-81
2023/05/07 01:10:09;;;;;;;0.20;0.20;;;12.20;99.90;;;;;;5007185;28;20050;-80
2023/05/07 01:12:37;;;;;;;0.10;0.10;;;12.20;99.90;;;;;;4992765;28;20497;-80
2023/05/07 01:15:04;;;;;;;0.10;0.10;;;12.20;99.90;;;;;;5009561;28;20494;-81
2023/05/07 01:17:36;;;;;;;0.17;0.17;;;12.20;99.90;;;;;;5011650;28;20045;-81
2023/05/07 01:20:04;;;;;;;0.20;0.20;;;12.10;99.90;;;;;;5012132;28;20042;-79
2023/05/07 01:22:36;;;;;;;0.20;0.20;;;12.10;99.90;;;;;;5010623;28;20153;-80
2023/05/07 01:25:03;;;;;;;0.20;0.20;;;12.10;99.90;;;;;;4993333;28;20056;-80
2023/05/07 01:27:29;;;;;;;0.10;0.10;;;12.10;99.90;;;;;;5010283;28;20058;-80
2023/05/07 01:29:58;;;;;;;0.20;0.20;;;12.10;99.90;;;;;;5007766;28;20052;-80
2023/05/07 01:32:42;;;;;;;0.15;0.15;;;12.10;99.90;;;;;;5006269;28;20058;-80
2023/05/07 01:35:11;;;;;;;0.20;0.20;;;12.10;99.90;;;;;;4992448;28;20098;-80
2023/05/07 01:37:38;;;;;;;0.20;0.20;;;12.10;99.90;;;;;;4991417;28;20049;-81
2023/05/07 01:40:05;;;;;;;0.20;0.20;;;12.10;99.90;;;;;;4993220;28;20058;-81
2023/05/07 01:42:31;;;;;;;0.10;0.10;;;12.10;99.90;;;;;;4991170;28;20042;-80
2023/05/07 01:44:57;;;;;;;0.20;0.20;;;12.00;99.90;;;;;;4984970;28;20049;-80
2023/05/07 01:47:24;;;;;;;0.10;0.10;;;12.10;99.90;;;;;;4992451;28;20259;-81
2023/05/07 01:49:50;;;;;;;0.17;0.17;;;12.00;99.90;;;;;;5011813;28;20042;-81
2023/05/07 01:52:16;;;;;;;0.10;0.10;;;12.10;99.90;;;;;;5010369;28;20042;-80
2023/05/07 01:54:42;;;;;;;0.20;0.20;;;12.00;99.90;;;;;;4991566;28;20042;-80
2023/05/07 01:57:08;;;;;;;0.13;0.13;;;12.00;99.90;;;;;;4993022;28;20046;-80
2023/05/07 01:59:33;;;;;;;0.10;0.10;;;12.10;99.90;;;;;;5007321;28;20042;-79
2023/05/07 02:02:00;;;;;;;0.20;0.20;;;12.10;99.90;;;;;;5009089;28;20041;-80
2023/05/07 02:04:26;;;;;;;0.20;0.20;;;12.00;99.90;;;;;;5010104;28;20054;-80
2023/05/07 02:06:52;;;;;;;0.10;0.10;;;12.00;99.90;;;;;;4991932;28;20033;-81
2023/05/07 02:09:18;;;;;;;0.20;0.20;;;12.00;99.90;;;;;;4990169;28;20413;-80
2023/05/07 02:11:44;;;;;;;0.20;0.20;;;12.00;99.90;;;;;;4981157;28;20057;-79
2023/05/07 02:14:10;;;;;;;0.20;0.20;;;12.10;99.90;;;;;;5005752;28;20042;-80
2023/05/07 02:16:36;;;;;;;0.20;0.20;;;12.00;99.90;;;;;;4990208;28;20052;-79
2023/05/07 02:19:02;;;;;;;0.13;0.13;;;12.00;99.90;;;;;;5009211;28;20397;-80
2023/05/07 02:21:27;;;;;;;0.20;0.20;;;12.20;99.90;;;;;;4990898;28;20073;-79
2023/05/07 02:23:53;;;;;;;0.20;0.20;;;12.00;99.90;;;;;;5009916;28;20411;-80
2023/05/07 02:26:18;;;;;;;0.10;0.10;;;12.00;99.90;;;;;;4989888;28;20026;-80
2023/05/07 02:28:44;;;;;;;0.20;0.20;;;12.00;99.90;;;;;;5007777;28;20449;-81
2023/05/07 02:31:10;;;;;;;0.20;0.20;;;12.00;99.90;;;;;;5005278;28;20132;-79
2023/05/07 02:33:36;;;;;;;0.20;0.20;;;12.00;99.90;;;;;;5004310;28;20054;-80
2023/05/07 02:36:06;;;;;;;0.13;0.13;;;12.00;99.90;;;;;;4979003;28;20124;-79
2023/05/07 02:38:32;;;;;;;0.10;0.10;;;12.00;99.90;;;;;;5009607;28;20115;-79
2023/05/07 02:40:58;;;;;;;0.10;0.10;;;12.00;99.90;;;;;;5009095;28;20494;-80
2023/05/07 02:43:23;;;;;;;0.20;0.20;;;12.00;99.90;;;;;;4986330;28;20529;-79
2023/05/07 02:45:49;;;;;;;0.10;0.10;;;12.00;99.90;;;;;;4999274;28;20038;-80
2023/05/07 02:48:15;;;;;;;0.10;0.10;;;12.00;99.90;;;;;;5007829;28;20052;-81
2023/05/07 02:50:40;;;;;;;0.20;0.20;;;12.00;99.90;;;;;;4989759;28;20037;-80
2023/05/07 02:53:06;;;;;;;0.20;0.20;;;11.90;99.90;;;;;;4989515;28;20440;-80
2023/05/07 02:55:32;;;;;;;0.15;0.15;;;11.90;99.90;;;;;;4992303;28;20457;-80
2023/05/07 02:57:57;;;;;;;0.20;0.20;;;11.90;99.90;;;;;;5007012;28;20054;-80
2023/05/07 03:00:24;;;;;;;0.10;0.10;;;11.90;99.90;;;;;;4990542;28;20046;-79
2023/05/07 03:02:49;;;;;;;0.10;0.10;;;11.80;99.90;;;;;;5010056;28;20402;-79
2023/05/07 03:05:15;;;;;;;0.10;0.10;;;11.80;99.90;;;;;;4992359;28;20046;-80
2023/05/07 03:07:44;;;;;;;0.20;0.20;;;11.80;99.90;;;;;;4991423;28;20068;-79
2023/05/07 03:10:10;;;;;;;0.13;0.13;;;11.80;99.90;;;;;;4998177;23;20551;-80
2023/05/07 03:12:36;;;;;;;0.15;0.15;;;11.80;99.90;;;;;;4971961;28;20137;-80
2023/05/07 03:15:02;;;;;;;0.10;0.10;;;11.80;99.90;;;;;;4971358;28;20123;-80
2023/05/07 03:17:28;;;;;;;0.10;0.10;;;11.80;99.90;;;;;;4991820;28;20034;-79
2023/05/07 03:19:53;;;;;;;0.10;0.10;;;11.80;99.90;;;;;;4992072;28;20561;-79
2023/05/07 03:22:20;;;;;;;0.10;0.10;;;11.80;99.90;;;;;;4995184;28;20684;-79
2023/05/07 03:24:45;;;;;;;0.10;0.10;;;11.80;99.90;;;;;;4980596;28;20080;-79
2023/05/07 03:27:11;;;;;;;0.10;0.10;;;11.60;99.90;;;;;;4972929;28;20042;-79
2023/05/07 03:29:37;;;;;;;0.10;0.10;;;11.70;99.90;;;;;;4988686;28;20042;-80
2023/05/07 03:32:02;;;;;;;0.10;0.10;;;11.70;99.90;;;;;;4988676;28;20054;-80
2023/05/07 03:34:28;;;;;;;0.20;0.20;;;11.70;99.90;;;;;;4970146;28;20045;-79
2023/05/07 03:36:53;;;;;;;0.20;0.20;;;11.70;99.90;;;;;;4972401;28;20371;-79
2023/05/07 03:39:19;;;;;;;0.20;0.20;;;11.70;99.90;;;;;;4988920;28;20046;-80
2023/05/07 03:41:45;;;;;;;0.20;0.20;;;11.70;99.90;;;;;;4989835;28;20042;-79
2023/05/07 03:44:10;;;;;;;0.10;0.10;;;11.60;99.90;;;;;;4978796;28;20046;-78
2023/05/07 03:46:36;;;;;;;0.10;0.10;;;11.70;99.90;;;;;;4973748;28;20050;-80
2023/05/07 03:49:02;;;;;;;0.10;0.10;;;11.60;99.90;;;;;;4972274;28;20049;-80
2023/05/07 03:51:28;;;;;;;0.20;0.20;;;11.60;99.90;;;;;;4972115;28;20042;-79
2023/05/07 03:53:53;;;;;;;0.17;0.17;;;11.60;99.90;;;;;;4971051;28;20053;-80
2023/05/07 03:56:19;;;;;;;0.20;0.20;;;11.60;99.90;;;;;;4972352;28;20052;-79
2023/05/07 03:58:45;;;;;;;0.10;0.10;;;11.60;99.90;;;;;;4976399;28;20077;-80
2023/05/07 04:01:11;;;;;;;0.20;0.20;;;11.60;99.90;;;;;;4993752;28;20127;-80
2023/05/07 04:03:37;;;;;;;0.13;0.13;;;11.60;99.90;;;;;;4982853;28;20050;-80
2023/05/07 04:06:03;;;;;;;0.10;0.10;;;11.50;99.90;;;;;;4993271;28;20049;-80
2023/05/07 04:08:32;;;;;;;0.20;0.20;;;11.50;99.90;;;;;;4994952;28;20136;-79
2023/05/07 04:10:58;;;;;;;0.10;0.10;;;11.50;99.90;;;;;;4993833;28;20137;-80
2023/05/07 04:13:24;;;;;;;0.20;0.20;;;11.50;99.90;;;;;;4977548;28;20053;-79
2023/05/07 04:15:51;;;;;;;0.20;0.20;;;11.50;99.90;;;;;;4977209;28;20046;-81
2023/05/07 04:18:17;;;;;;;0.20;0.20;;;11.50;99.90;;;;;;4971674;28;20402;-79
2023/05/07 04:20:42;;;;;;;0.20;0.20;;;11.50;99.90;;;;;;4990834;28;20055;-79
2023/05/07 04:23:08;;;;;;;0.13;0.13;;;11.50;99.90;;;;;;4972229;28;20050;-79
2023/05/07 04:25:34;;;;;;;0.20;0.20;;;11.40;99.90;;;;;;4974975;28;20046;-79
2023/05/07 04:28:00;;;;;;;0.20;0.20;;;11.50;99.90;;;;;;4976982;28;20053;-79
2023/05/07 04:30:25;;;;;;;0.20;0.20;;;11.50;99.90;;;;;;4988037;28;20077;-79
2023/05/07 04:32:52;;;;;;;0.10;0.10;;;11.40;99.90;;;;;;5000037;28;20042;-79
2023/05/07 04:35:18;;;;;;;0.20;0.20;;;11.40;99.90;;;;;;4970544;28;20052;-79
2023/05/07 04:37:44;;;;;;;0.20;0.20;;;11.40;99.90;;;;;;4974149;28;20324;-79
2023/05/07 04:40:10;;;;;;;0.20;0.20;;;11.40;99.90;;;;;;4992868;28;20100;-79
2023/05/07 04:42:36;;;;;;;0.10;0.10;;;11.40;99.90;;;;;;4983570;28;20546;-80
2023/05/07 04:45:02;;;;;;;0.10;0.10;;;11.40;99.90;;;;;;4980477;28;20050;-79
2023/05/07 04:47:30;;;;;;;0.20;0.20;;;11.50;99.90;;;;;;4991542;28;20042;-79
2023/05/07 04:49:57;;;;;;;0.20;0.20;;;11.40;99.90;;;;;;4994131;28;20114;-80
2023/05/07 04:52:22;;;;;;;0.20;0.20;;;11.60;99.90;;;;;;4995618;28;20129;-79
2023/05/07 04:54:48;;;;;;;0.10;0.10;;;11.40;99.90;;;;;;4995524;28;20546;-79
2023/05/07 04:57:13;;;;;;;0.20;0.20;;;11.40;99.90;;;;;;4993051;28;20130;-80
2023/05/07 04:59:39;;;;;;;0.20;0.20;;;11.40;99.90;;;;;;4974240;28;20085;-79
2023/05/07 05:02:05;;;;;;;0.20;0.20;;;11.40;99.90;;;;;;4970683;28;20043;-80
2023/05/07 05:04:31;;;;;;;0.10;0.10;;;11.40;99.90;;;;;;4974085;28;20105;-80
2023/05/07 05:06:56;;;;;;;0.20;0.20;;;11.40;99.90;;;;;;4974990;28;20043;-80
2023/05/07 05:09:22;;;;;;;0.20;0.20;;;11.40;99.90;;;;;;4973349;28;20101;-79
2023/05/07 05:11:47;;;;;;;0.20;0.20;;;11.40;99.90;;;;;;4975617;28;20045;-78
2023/05/07 05:14:13;;;;;;;0.20;0.20;;;11.50;99.90;;;;;;4991143;28;20078;-80
2023/05/07 05:16:39;;;;;;;0.20;0.20;;;11.40;99.90;;;;;;4978593;28;20050;-79
2023/05/07 05:19:07;;;;;;;0.10;0.10;;;11.40;99.90;;;;;;4973792;28;20050;-79
2023/05/07 05:21:33;;;;;;;0.20;0.20;;;11.50;99.90;;;;;;4990620;28;20049;-80
2023/05/07 05:23:59;;;;;;;0.20;0.20;;;11.40;99.90;;;;;;4990198;28;20042;-80
2023/05/07 05:26:24;;;;;;;0.20;0.20;;;11.40;99.90;;;;;;4995923;28;20046;-79
2023/05/07 05:28:50;;;;;;;0.20;0.20;;;11.40;99.90;;;;;;5000618;28;20455;-80
2023/05/07 05:31:18;;;;;;;0.20;0.20;;;11.40;99.90;;;;;;4991555;28;20128;-79
2023/05/07 05:33:44;;;;;;;0.13;0.13;;;11.40;99.90;;;;;;4977318;28;20508;-80
2023/05/07 05:36:10;;;;;;;0.10;0.10;;;11.40;99.90;;;;;;4986951;28;20038;-80
2023/05/07 05:38:36;;;;;;;0.10;0.10;;;11.40;99.90;;;;;;4981744;28;20444;-79
2023/05/07 05:41:02;;;;;;;0.20;0.20;;;11.40;99.90;;;;;;4990799;28;20046;-80
2023/05/07 05:43:27;;;;;;;0.20;0.20;;;11.40;99.90;;;;;;4972758;28;20042;-80
2023/05/07 05:45:55;;;;;;;0.17;0.17;;;11.40;99.90;;;;;;4993337;28;20126;-79
2023/05/07 05:48:20;;;;;;;0.20;0.20;;;11.40;99.90;;;;;;4981968;28;20054;-79
2023/05/07 05:50:46;;;;;;;0.20;0.20;;;11.40;99.90;;;;;;4976999;28;20315;-79
2023/05/07 05:53:15;;;;;;;0.20;0.20;;;11.40;99.90;;;;;;4973694;28;20137;-79
2023/05/07 05:55:41;;;;;;;0.10;0.10;;;11.40;99.90;;;;;;4991418;28;20400;-80
2023/05/07 05:58:08;;;;;;;0.10;0.10;;;11.40;99.90;;;;;;4974847;28;20302;-79
2023/05/07 06:00:34;;;;;;;0.10;0.10;;;11.40;99.90;;;;;;4971900;28;20360;-80
2023/05/07 06:03:00;;;;;;;0.20;0.20;;;11.40;99.90;;;;;;4992173;28;20077;-80
2023/05/07 06:05:25;;;;;;;0.20;0.20;;;11.40;99.90;;;;;;4991243;28;20050;-80
2023/05/07 06:07:51;;;;;;;0.10;0.10;;;11.40;99.90;;;;;;4975958;28;20474;-79
2023/05/07 06:10:17;;;;;;;0.10;0.10;;;11.40;99.90;;;;;;4994357;28;20046;-80
2023/05/07 06:12:45;;;;;;;0.20;0.20;;;11.40;99.90;;;;;;4972560;28;20479;-79
2023/05/07 06:15:11;;;;;;;0.20;0.20;;;11.50;99.90;;;;;;4989436;28;20518;-80
2023/05/07 06:17:39;;;;;;;0.17;0.17;;;11.40;99.90;;;;;;4991246;28;20050;-80
2023/05/07 06:20:05;;;;;;;0.20;0.20;;;11.40;99.90;;;;;;4993310;28;20049;-80
2023/05/07 06:22:31;;;;;;;0.20;0.20;;;11.40;99.90;;;;;;4984277;28;20061;-80
2023/05/07 06:24:56;;;;;;;0.20;0.20;;;11.40;99.90;;;;;;4976778;28;20498;-80
2023/05/07 06:27:22;;;;;;;0.20;0.20;;;11.40;99.90;;;;;;4971742;28;20049;-86
2023/05/07 06:29:48;;;;;;;0.15;0.15;;;11.40;99.90;;;;;;4985860;28;20050;-84
2023/05/07 06:32:14;;;;;;;0.20;0.20;;;11.40;99.90;;;;;;4974605;28;20046;-86
2023/05/07 06:34:40;;;;;;;0.17;0.17;;;11.40;99.90;;;;;;4990371;28;20048;-83
2023/05/07 06:37:07;;;;;;;0.10;0.10;;;11.40;99.90;;;;;;4989622;28;20105;-84
2023/05/07 06:39:33;;;;;;;0.10;0.10;;;11.50;99.90;;;;;;4986655;28;20073;-84
2023/05/07 06:42:00;;;;;;;0.20;0.20;;;11.50;99.90;;;;;;4973614;28;20129;-84
2023/05/07 06:44:26;;;;;;;0.10;0.10;;;11.50;99.90;;;;;;4973031;28;20125;-85
2023/05/07 06:46:51;;;;;;;0.20;0.20;;;11.50;99.90;;;;;;4991205;28;20482;-85
2023/05/07 06:49:17;;;;;;;0.20;0.20;;;11.60;99.90;;;;;;4989174;28;20406;-85
2023/05/07 06:51:43;;;;;;;0.10;0.10;;;11.60;99.90;;;;;;4991550;28;20049;-85
2023/05/07 06:54:09;;;;;;;0.15;0.15;;;11.60;99.90;;;;;;4973744;28;20092;-86
2023/05/07 06:56:34;;;;;;;0.20;0.20;;;11.60;99.90;;;;;;4992120;28;20463;-84
2023/05/07 06:59:01;;;;;;;0.10;0.10;;;11.60;99.90;;;;;;5006344;28;20555;-86
2023/05/07 07:01:27;;;;;;;0.17;0.17;;;11.60;99.90;;;;;;4972726;28;20047;-84
2023/05/07 07:03:53;;;;;;;0.20;0.20;;;11.60;99.90;;;;;;4990933;28;20056;-85
2023/05/07 07:06:18;;;;;;;0.20;0.20;;;11.60;99.90;;;;;;4985091;28;20109;-86
2023/05/07 07:08:44;;;;;;;0.10;0.10;;;11.60;99.90;;;;;;4976209;28;20564;-89
2023/05/07 07:11:10;;;;;;;0.15;0.15;;;11.70;99.90;;;;;;4998878;28;20042;-92
2023/05/07 07:13:36;;;;;;;0.10;0.10;;;11.70;99.90;;;;;;4995588;28;20490;-93
2023/05/07 07:16:02;;;;;;;0.20;0.20;;;11.70;99.90;;;;;;4994967;28;20474;-90
2023/05/07 07:18:28;;;;;;;0.10;0.10;;;11.60;99.90;;;;;;4997125;28;20053;-92
2023/05/07 07:20:54;;;;;;;0.17;0.17;;;11.70;99.90;;;;;;4995486;28;20042;-93
2023/05/07 07:23:20;;;;;;;0.17;0.17;;;11.70;99.90;;;;;;4999834;28;20112;-92
2023/05/07 07:25:46;;;;;;;0.10;0.10;;;11.60;99.90;;;;;;4999614;28;20045;-92
2023/05/07 07:28:11;;;;;;;0.20;0.20;;;11.70;99.90;;;;;;5001093;28;20042;-93
2023/05/07 07:30:38;;;;;;;0.20;0.20;;;11.60;99.90;;;;;;4989747;28;20043;-92
2023/05/07 07:33:04;;;;;;;0.17;0.17;;;11.60;99.90;;;;;;5009587;28;20049;-92
2023/05/07 07:35:31;;;;;;;0.20;0.20;;;11.60;99.90;;;;;;5003603;28;20053;-91
2023/05/07 07:37:56;;;;;;;0.20;0.20;;;11.70;99.90;;;;;;4988027;28;20042;-91
2023/05/07 07:40:22;;;;;;;0.10;0.10;;;12.10;99.90;;;;;;5007257;28;20053;-92
2023/05/07 07:42:48;;;;;;;0.10;0.10;;;11.60;99.90;;;;;;4992416;28;20046;-92
2023/05/07 07:45:14;;;;;;;0.20;0.20;;;11.60;99.90;;;;;;4993982;28;20053;-92
2023/05/07 07:47:40;;;;;;;0.20;0.20;;;11.60;99.90;;;;;;5011010;28;20043;-89
2023/05/07 07:50:06;;;;;;;0.20;0.20;;;11.60;99.90;;;;;;4996252;28;20042;-92
2023/05/07 07:52:32;;;;;;;0.10;0.10;;;11.60;99.90;;;;;;4990163;28;20105;-92
2023/05/07 07:54:58;;;;;;;0.10;0.10;;;11.60;99.90;;;;;;4994423;28;20050;-91
2023/05/07 07:57:24;;;;;;;0.20;0.20;;;11.60;99.90;;;;;;5002647;28;20037;-92
2023/05/07 07:59:50;;;;;;;0.20;0.20;;;11.60;99.90;;;;;;4996392;28;20118;-91
2023/05/07 08:02:16;;;;;;;0.20;0.20;;;11.60;99.90;;;;;;4997606;28;20054;-92
2023/05/07 08:04:43;;;;;;;0.20;0.20;;;11.70;99.90;;;;;;4992366;28;20121;-92
2023/05/07 08:07:09;;;;;;;0.20;0.20;;;11.70;99.90;;;;;;4997147;28;20058;-92
2023/05/07 08:09:36;;;;;;;0.10;0.10;;;11.70;99.90;;;;;;4990930;28;20061;-92
2023/05/07 08:12:02;;;;;;;0.15;0.15;;;11.80;99.90;;;;;;5001175;28;20537;-91
2023/05/07 08:14:28;;;;;;;0.20;0.20;;;11.80;99.90;;;;;;4987275;28;20053;-91
2023/05/07 08:16:54;;;;;;;0.20;0.20;;;11.80;99.90;;;;;;4997264;28;20038;-90
2023/05/07 08:19:20;;;;;;;0.17;0.17;;;11.90;99.90;;;;;;4999771;28;20103;-91
2023/05/07 08:21:47;;;;;;;0.20;0.20;;;11.90;99.90;;;;;;4997541;28;20065;-91
2023/05/07 08:24:14;;;;;;;0.20;0.20;;;12.00;99.90;;;;;;4988638;28;20059;-90
2023/05/07 08:26:40;;;;;;;0.20;0.20;;;12.10;99.90;;;;;;5002018;28;20395;-92
2023/05/07 08:29:06;;;;;;;0.20;0.20;;;12.10;99.90;;;;;;5008082;28;20042;-92
2023/05/07 08:31:32;;;;;;;0.90;0.90;;;12.20;99.90;;;;;;4996813;28;20038;-91
2023/05/07 08:33:58;;;;;;;0.20;0.20;;;12.30;99.90;;;;;;5010993;28;20566;-92
2023/05/07 08:36:25;;;;;;;0.10;0.10;;;12.30;99.90;;;;;;4994072;28;20047;-92
2023/05/07 08:38:51;;;;;;;0.10;0.10;;;12.30;99.90;;;;;;5014069;28;20042;-92
2023/05/07 08:41:17;;;;;;;0.10;0.10;;;12.30;99.90;;;;;;5004747;28;20678;-93
2023/05/07 08:43:47;;;;;;;0.20;0.20;;;12.40;99.90;;;;;;5002051;28;20132;-93
2023/05/07 08:46:17;;;;;;;0.20;0.20;;;12.60;99.90;;;;;;4999037;28;20078;-93
2023/05/07 08:48:42;;;;;;;0.20;0.20;;;12.50;99.90;;;;;;5000563;28;20054;-92
2023/05/07 08:51:12;;;;;;;0.15;0.15;;;12.50;99.90;;;;;;4999975;28;20052;-91
2023/05/07 08:53:40;;;;;;;0.20;0.20;;;12.60;99.90;;;;;;5004947;28;20046;-93
2023/05/07 08:56:08;;;;;;;0.10;0.10;;;12.70;99.90;;;;;;4983530;28;20050;-92
2023/05/07 08:58:34;;;;;;;0.20;0.20;;;12.80;99.90;;;;;;5001843;28;20053;-94
2023/05/07 09:01:04;;;;;;;0.20;0.20;;;12.80;99.90;;;;;;4995740;28;20418;-93
2023/05/07 09:03:31;;;;;;;0.20;0.20;;;13.00;99.90;;;;;;4986915;28;20073;-91
2023/05/07 09:05:56;;;;;;;0.20;0.20;;;13.10;99.90;;;;;;5011352;28;20100;-91
2023/05/07 09:08:25;;;;;;;0.20;0.20;;;13.20;99.90;;;;;;5002097;28;20042;-90
2023/05/07 09:10:52;;;;;;;0.20;0.20;;;13.20;99.90;;;;;;5010457;28;20039;-94
2023/05/07 09:13:18;;;;;;;0.20;0.20;;;13.40;99.90;;;;;;4986199;28;20075;-93
2023/05/07 09:15:43;;;;;;;0.20;0.20;;;13.40;99.90;;;;;;4990131;28;20041;-95
2023/05/07 09:18:09;;;;;;;0.10;0.10;;;13.50;99.90;;;;;;4986985;28;20475;-94
2023/05/07 09:20:37;;;;;;;0.20;0.20;;;13.50;99.90;;;;;;4974620;28;20113;-94
2023/05/07 09:23:03;;;;;;;0.10;0.10;;;13.60;99.90;;;;;;4976480;28;20089;-92
2023/05/07 09:25:33;;;;;;;0.20;0.20;;;13.50;99.90;;;;;;4979123;28;20050;-93
2023/05/07 09:28:00;;;;;;;0.17;0.17;;;13.60;99.90;;;;;;4998942;28;20030;-92
2023/05/07 09:30:33;;;;;;;0.20;0.20;;;13.70;99.90;;;;;;4971099;28;20423;-93
2023/05/07 09:32:59;;;;;;;0.20;0.20;;;13.70;99.90;;;;;;4975520;28;20182;-93
2023/05/07 09:35:29;;;;;;;0.20;0.20;;;13.80;99.90;;;;;;4973981;28;20047;-92
2023/05/07 09:37:59;;;;;;;0.10;0.10;;;13.80;99.90;;;;;;4976548;28;20055;-92
2023/05/07 09:40:27;;;;;;;0.20;0.20;;;14.00;99.90;;;;;;4989591;28;20042;-93
2023/05/07 09:42:53;;;;;;;0.20;0.20;;;14.00;99.90;;;;;;4981557;28;20049;-90
2023/05/07 09:45:24;;;;;;;0.20;0.20;;;14.10;99.90;;;;;;4987298;28;20513;-95
2023/05/07 09:47:55;;;;;;;0.20;0.20;;;14.10;99.90;;;;;;4977854;28;20038;-93
2023/05/07 09:50:42;;;;;;;0.20;0.20;;;14.20;99.90;;;;;;4997070;28;20052;-91
2023/05/07 09:53:10;;;;;;;0.10;0.10;;;14.30;99.90;;;;;;4968311;28;20073;-94
2023/05/07 09:55:37;;;;;;;0.10;0.10;;;14.40;99.90;;;;;;5005460;28;20050;-92
2023/05/07 09:58:06;;;;;;;0.20;0.20;;;14.30;99.90;;;;;;4992749;28;20073;-91
2023/05/07 10:00:32;;;;;;;0.20;0.20;;;14.50;99.90;;;;;;4982995;28;20107;-92
2023/05/07 10:03:00;;;;;;;0.20;0.20;;;14.40;99.90;;;;;;4974659;28;20070;-92
2023/05/07 10:05:27;;;;;;;0.10;0.10;;;14.40;99.90;;;;;;4995257;28;20046;-93
2023/05/07 10:07:53;;;;;;;0.15;0.15;;;14.40;99.90;;;;;;4982156;28;20041;-92
2023/05/07 10:10:19;;;;;;;0.10;0.10;;;14.50;99.90;;;;;;5001597;28;20054;-93
2023/05/07 10:12:46;;;;;;;0.20;0.20;;;14.50;99.90;;;;;;4976828;28;20050;-91
2023/05/07 10:15:12;;;;;;;0.10;0.10;;;14.60;99.90;;;;;;4961021;28;20043;-93
2023/05/07 10:17:39;;;;;;;0.20;0.20;;;14.60;99.90;;;;;;4993528;28;20050;-93
2023/05/07 10:20:05;;;;;;;0.20;0.20;;;14.70;99.90;;;;;;4977174;28;20050;-93
2023/05/07 10:22:40;;;;;;;0.17;0.17;;;14.80;99.90;;;;;;4992372;28;20046;-93
2023/05/07 10:25:20;;;;;;;0.20;0.20;;;14.90;99.90;;;;;;4989087;28;20041;-93
2023/05/07 10:27:49;;;;;;;0.20;0.20;;;14.90;99.90;;;;;;4997253;28;20046;-94
2023/05/07 10:30:41;;;;;;;0.10;0.10;;;14.80;99.90;;;;;;4998022;28;20129;-91
2023/05/07 10:33:10;;;;;;;0.10;0.10;;;14.80;99.90;;;;;;4986320;28;20072;-93
2023/05/07 10:35:43;;;;;;;0.20;0.20;;;14.90;99.90;;;;;;5001432;28;20041;-94
2023/05/07 10:38:09;;;;;;;0.20;0.20;;;14.90;99.90;;;;;;4984586;28;20039;-89
2023/05/07 10:40:36;;;;;;;0.20;0.20;;;14.80;99.90;;;;;;4993644;28;20046;-93
2023/05/07 10:43:06;;;;;;;0.20;0.20;;;14.90;99.90;;;;;;4998924;28;20371;-92
2023/05/07 10:45:32;;;;;;;0.20;0.20;;;15.00;99.90;;;;;;4997082;28;20046;-93
2023/05/07 10:48:10;;;;;;;0.20;0.20;;;14.90;99.90;;;;;;4979995;28;20073;-92
2023/05/07 10:50:37;;;;;;;0.10;0.10;;;14.90;99.90;;;;;;4981311;28;20061;-94
2023/05/07 10:53:18;;;;;;;0.20;0.20;;;14.90;99.90;;;;;;4997734;28;20193;-94
2023/05/07 10:55:48;;;;;;;0.10;0.10;;;14.90;99.90;;;;;;4996145;28;20042;-93
2023/05/07 10:58:27;;;;;;;0.10;0.10;;;14.90;99.90;;;;;;4990481;28;20041;-92
2023/05/07 11:01:01;;;;;;;0.17;0.17;;;14.90;99.90;;;;;;5006219;28;20053;-86
2023/05/07 11:03:27;;;;;;;0.17;0.17;;;14.90;99.90;;;;;;5010108;28;20079;-87
2023/05/07 11:06:13;;;;;;;0.20;0.20;;;15.00;99.90;;;;;;4991644;28;20053;-83
2023/05/07 11:08:58;;;;;;;0.10;0.10;;;15.00;99.90;;;;;;4986657;28;20135;-85
2023/05/07 11:11:55;;;;;;;0.10;0.10;;;15.10;99.90;;;;;;4964310;28;20093;-88
2023/05/07 11:14:46;;;;;;;0.20;0.20;;;15.10;99.90;;;;;;4970446;28;20130;-86
2023/05/07 11:17:12;;;;;;;0.10;0.10;;;15.20;99.90;;;;;;4973231;28;20096;-87
2023/05/07 11:19:54;;;;;;;0.20;0.20;;;15.30;99.90;;;;;;4972691;28;20136;-88
2023/05/07 11:22:36;;;;;;;0.17;0.17;;;15.40;99.90;;;;;;4973331;28;20046;-86
2023/05/07 11:25:03;;;;;;;0.20;0.20;;;15.60;99.90;;;;;;4994332;28;20077;-87
2023/05/07 11:27:29;;;;;;;0.20;0.20;;;15.70;99.90;;;;;;4989858;28;20045;-85
2023/05/07 11:29:55;;;;;;;0.20;0.20;;;15.90;99.90;;;;;;4989025;28;20057;-87
2023/05/07 11:32:32;;;;;;;0.10;0.10;;;16.10;99.90;;;;;;4981450;28;20053;-87
2023/05/07 11:34:59;;;;;;;0.20;0.20;;;16.30;99.90;;;;;;4969740;28;20042;-85
2023/05/07 11:37:27;;;;;;;0.20;0.20;;;16.40;99.90;;;;;;4977669;28;20081;-83
2023/05/07 11:40:13;;;;;;;0.20;0.20;;;16.70;99.90;;;;;;4972109;28;20053;-85
2023/05/07 11:42:42;;;;;;;0.20;0.20;;;16.70;99.90;;;;;;4982842;28;20124;-85
2023/05/07 11:45:08;;;;;;;0.10;0.10;;;16.80;99.90;;;;;;4988403;28;20042;-84
2023/05/07 11:47:34;;;;;;;0.20;0.20;;;16.90;99.90;;;;;;4975306;28;20042;-87
2023/05/07 11:50:07;;;;;;;0.20;0.20;;;17.00;99.90;;;;;;4990905;28;20053;-87
2023/05/07 11:52:34;;;;;;;0.10;0.10;;;17.10;99.90;;;;;;4972695;28;20134;-85
2023/05/07 11:55:01;;;;;;;0.20;0.20;;;17.30;99.90;;;;;;4988578;28;20050;-87
2023/05/07 11:57:28;;;;;;;0.10;0.10;;;17.40;99.90;;;;;;4999495;28;20065;-86
2023/05/07 11:59:55;;;;;;;0.20;0.20;;;17.50;99.90;;;;;;5008289;28;20142;-87
2023/05/07 12:02:20;;;;;;;0.50;0.30;;;17.60;99.90;;;;;;4992844;28;20348;-87
2023/05/07 12:04:46;;;;;;;0.10;0.10;;;17.80;99.90;;;;;;4991787;28;20086;-88
2023/05/07 12:07:15;;;;;;;0.20;0.20;;;17.90;99.90;;;;;;4992591;28;20045;-85
2023/05/07 12:09:41;;;;;;;0.20;0.20;;;18.00;99.90;;;;;;4991747;28;20046;-86
2023/05/07 12:12:07;;;;;;;0.10;0.10;;;18.10;99.90;;;;;;4984871;28;20050;-86
2023/05/07 12:14:44;;;;;;;0.20;0.20;;;18.20;99.90;;;;;;4988952;28;20149;-87
2023/05/07 12:17:11;;;;;;;0.20;0.20;;;18.30;99.90;;;;;;4989725;28;20046;-84
2023/05/07 12:19:38;;;;;;;0.10;0.10;;;18.40;99.90;;;;;;4971109;28;20109;-87
2023/05/07 12:22:05;;;;;;;0.20;0.20;;;18.40;99.90;;;;;;4988924;28;20474;-85
2023/05/07 12:24:48;;;;;;;0.20;0.20;;;18.60;99.90;;;;;;4974470;28;20046;-88
2023/05/07 12:27:15;;;;;;;0.20;0.20;;;18.80;99.90;;;;;;4980026;28;20080;-86
2023/05/07 12:29:47;;;;;;;0.20;0.20;;;19.00;99.90;;;;;;5003237;28;20466;-86
2023/05/07 12:32:16;;;;;;;0.20;0.20;;;19.10;99.90;;;;;;4995304;28;20044;-86
2023/05/07 12:34:43;;;;;;;0.20;0.20;;;19.20;99.90;;;;;;4999774;28;20390;-86
2023/05/07 12:37:08;;;;;;;0.20;0.20;;;19.20;99.90;;;;;;4981215;28;20041;-86
2023/05/07 12:39:34;;;;;;;0.20;0.20;;;19.20;99.90;;;;;;4999649;28;20053;-86
2023/05/07 12:42:00;;;;;;;0.20;0.20;;;19.30;99.90;;;;;;4983510;28;20056;-87
2023/05/07 12:44:30;;;;;;;0.20;0.20;;;19.40;99.90;;;;;;4988955;28;20074;-87
2023/05/07 12:46:56;;;;;;;0.20;0.20;;;19.50;99.90;;;;;;4979668;28;20052;-85
2023/05/07 12:49:23;;;;;;;0.20;0.20;;;19.50;99.90;;;;;;5003731;28;20042;-83